createdAt,value
2022-11-20T00:02:05.258Z,0.50
2022-11-20T00:04:33.410Z,0.40
2022-11-20T00:07:03.776Z,0.40
2022-11-20T00:09:32.041Z,0.40
2022-11-20T00:12:01.575Z,0.30
2022-11-20T00:14:29.980Z,0.40
2022-11-20T00:16:58.175Z,0.30
2022-11-20T00:19:26.779Z,0.40
2022-11-20T00:21:56.331Z,0.30
2022-11-20T00:24:24.493Z,0.30
2022-11-20T00:26:52.613Z,0.40
2022-11-20T00:29:22.497Z,0.30
2022-11-20T00:31:50.742Z,0.30
2022-11-20T00:34:18.974Z,0.30
2022-11-20T00:36:47.215Z,0.30
2022-11-20T00:39:15.648Z,0.30
2022-11-20T00:41:43.839Z,0.30
2022-11-20T00:44:11.930Z,0.30
2022-11-20T00:46:41.501Z,0.30
2022-11-20T00:49:09.687Z,0.30
2022-11-20T00:51:37.823Z,0.40
2022-11-20T00:54:06.324Z,0.40
2022-11-20T00:56:34.530Z,0.40
2022-11-20T00:59:05.550Z,0.40
2022-11-20T01:01:33.849Z,0.40
2022-11-20T01:04:03.470Z,0.40
2022-11-20T01:06:33.703Z,0.40
2022-11-20T01:09:08.350Z,0.40
2022-11-20T01:11:38.885Z,0.30
2022-11-20T01:14:09.140Z,0.40
2022-11-20T01:16:40.385Z,0.40
2022-11-20T01:19:17.521Z,0.40
2022-11-20T01:21:48.213Z,0.30
2022-11-20T01:24:18.588Z,0.30
2022-11-20T01:26:48.851Z,0.30
2022-11-20T01:29:19.506Z,0.40
2022-11-20T01:31:48.291Z,0.30
2022-11-20T01:34:20.315Z,0.30
2022-11-20T01:36:48.889Z,0.40
2022-11-20T01:39:20.609Z,0.30
2022-11-20T01:42:10.098Z,0.30
2022-11-20T01:44:55.815Z,0.40
2022-11-20T01:47:29.169Z,0.40
2022-11-20T01:50:03.509Z,0.40
2022-11-20T01:52:38.363Z,0.40
2022-11-20T01:55:11.040Z,0.30
2022-11-20T01:57:40.065Z,0.30
2022-11-20T02:00:10.941Z,0.40
2022-11-20T02:02:45.408Z,0.40
2022-11-20T02:05:22.233Z,0.30
2022-11-20T02:07:51.411Z,0.30
2022-11-20T02:10:19.796Z,0.30
2022-11-20T02:13:05.670Z,0.30
2022-11-20T02:15:35.152Z,0.30
2022-11-20T02:18:03.589Z,0.30
2022-11-20T02:20:35.402Z,0.30
2022-11-20T02:23:10.770Z,0.20
2022-11-20T02:25:41.530Z,0.20
2022-11-20T02:28:10.076Z,0.20
2022-11-20T02:30:38.249Z,0.20
2022-11-20T02:33:06.348Z,0.20
2022-11-20T02:35:44.551Z,0.10
2022-11-20T02:38:12.815Z,0.10
2022-11-20T02:40:42.640Z,0.20
2022-11-20T02:43:11.465Z,0.20
2022-11-20T02:45:39.779Z,0.10
2022-11-20T02:48:10.116Z,0.10
2022-11-20T02:50:40.912Z,0.10
2022-11-20T02:53:09.449Z,0.10
2022-11-20T02:55:38.568Z,0.10
2022-11-20T02:58:08.118Z,0.10
2022-11-20T03:00:36.523Z,0.10
2022-11-20T03:03:04.785Z,0.10
2022-11-20T03:05:32.941Z,0.10
2022-11-20T03:08:03.768Z,0.10
2022-11-20T03:10:31.863Z,0.10
2022-11-20T03:13:00.063Z,0.10
2022-11-20T03:15:29.621Z,0.00
2022-11-20T03:17:57.791Z,0.00
2022-11-20T03:20:26.321Z,0.10
2022-11-20T03:22:56.028Z,0.00
2022-11-20T03:25:24.611Z,0.00
2022-11-20T03:27:52.799Z,0.00
2022-11-20T03:30:21.035Z,0.00
2022-11-20T03:32:50.586Z,0.00
2022-11-20T03:35:18.757Z,0.00
2022-11-20T03:37:49.268Z,0.00
2022-11-20T03:40:17.497Z,0.00
2022-11-20T03:42:48.576Z,0.00
2022-11-20T03:45:18.460Z,0.00
2022-11-20T03:47:47.258Z,0.10
2022-11-20T03:50:18.042Z,0.20
2022-11-20T03:52:46.147Z,0.10
2022-11-20T03:55:14.237Z,0.20
2022-11-20T03:57:42.401Z,0.20
2022-11-20T04:00:11.804Z,0.20
2022-11-20T04:02:40.221Z,0.20
2022-11-20T04:05:09.118Z,0.20
2022-11-20T04:07:38.691Z,0.20
2022-11-20T04:10:07.661Z,0.20
2022-11-20T04:12:35.837Z,0.20
2022-11-20T04:15:04.046Z,0.20
2022-11-20T04:17:32.544Z,0.10
2022-11-20T04:20:00.732Z,0.00
2022-11-20T04:22:29.511Z,-0.10
2022-11-20T04:24:58.988Z,-0.10
2022-11-20T04:27:27.100Z,-0.20
2022-11-20T04:29:55.253Z,-0.20
2022-11-20T04:32:23.345Z,-0.20
2022-11-20T04:34:53.468Z,-0.20
2022-11-20T04:37:21.661Z,-0.20
2022-11-20T04:39:49.811Z,-0.20
2022-11-20T04:42:31.186Z,-0.20
2022-11-20T04:44:59.626Z,-0.20
2022-11-20T04:47:28.206Z,-0.20
2022-11-20T04:49:56.497Z,-0.20
2022-11-20T04:52:24.700Z,-0.20
2022-11-20T04:54:54.349Z,-0.20
2022-11-20T04:57:23.824Z,-0.20
2022-11-20T04:59:51.888Z,-0.20
2022-11-20T05:02:20.284Z,-0.30
2022-11-20T05:04:48.465Z,-0.30
2022-11-20T05:07:16.713Z,-0.20
2022-11-20T05:09:44.966Z,-0.30
2022-11-20T05:12:13.340Z,-0.30
2022-11-20T05:14:42.927Z,-0.30
2022-11-20T05:17:13.276Z,-0.30
2022-11-20T05:19:41.828Z,-0.20
2022-11-20T05:22:09.885Z,-0.20
2022-11-20T05:24:37.987Z,-0.20
2022-11-20T05:27:06.067Z,-0.20
2022-11-20T05:29:34.179Z,-0.10
2022-11-20T05:32:04.025Z,-0.10
2022-11-20T05:34:32.148Z,-0.10
2022-11-20T05:37:00.272Z,-0.10
2022-11-20T05:39:28.328Z,-0.10
2022-11-20T05:42:10.544Z,-0.10
2022-11-20T05:44:38.669Z,-0.10
2022-11-20T05:47:08.403Z,-0.10
2022-11-20T05:49:36.608Z,0.00
2022-11-20T05:52:04.935Z,-0.10
2022-11-20T05:54:33.218Z,0.00
2022-11-20T05:57:01.792Z,0.00
2022-11-20T05:59:29.863Z,0.00
2022-11-20T06:01:58.140Z,0.10
2022-11-20T06:04:27.866Z,0.00
2022-11-20T06:06:56.021Z,0.00
2022-11-20T06:09:24.173Z,0.00
2022-11-20T06:11:52.319Z,0.00
2022-11-20T06:14:20.428Z,0.00
2022-11-20T06:16:49.120Z,0.00
2022-11-20T06:19:17.527Z,0.00
2022-11-20T06:21:47.081Z,0.00
2022-11-20T06:24:15.368Z,0.00
2022-11-20T06:26:43.784Z,0.00
2022-11-20T06:29:11.991Z,0.00
2022-11-20T06:31:40.238Z,0.00
2022-11-20T06:34:08.840Z,-0.10
2022-11-20T06:36:37.067Z,0.00
2022-11-20T06:39:06.606Z,0.00
2022-11-20T06:41:34.756Z,0.00
2022-11-20T06:44:03.058Z,0.10
2022-11-20T06:46:31.314Z,0.00
2022-11-20T06:49:00.094Z,0.00
2022-11-20T06:51:28.220Z,0.00
2022-11-20T06:53:56.385Z,0.00
2022-11-20T06:56:26.609Z,-0.10
2022-11-20T06:58:54.769Z,-0.10
2022-11-20T07:01:22.956Z,0.00
2022-11-20T07:03:54.372Z,0.00
2022-11-20T07:06:22.901Z,0.00
2022-11-20T07:08:52.761Z,0.00
2022-11-20T07:11:21.053Z,0.00
2022-11-20T07:13:50.654Z,0.00
2022-11-20T07:16:20.854Z,0.00
2022-11-20T07:18:50.898Z,0.10
2022-11-20T07:21:19.493Z,-0.10
2022-11-20T07:23:47.723Z,0.00
2022-11-20T07:26:15.840Z,0.00
2022-11-20T07:28:46.636Z,0.00
2022-11-20T07:31:19.352Z,0.10
2022-11-20T07:33:47.914Z,0.00
2022-11-20T07:36:18.134Z,0.00
2022-11-20T07:38:46.279Z,0.00
2022-11-20T07:41:14.539Z,-0.10
2022-11-20T07:43:45.474Z,-0.10
2022-11-20T07:46:15.079Z,0.00
2022-11-20T07:48:43.201Z,0.00
2022-11-20T07:51:11.361Z,0.00
2022-11-20T07:53:39.493Z,0.00
2022-11-20T07:56:08.465Z,-0.10
2022-11-20T07:58:36.510Z,0.00
2022-11-20T08:01:06.200Z,-0.10
2022-11-20T08:03:38.677Z,0.00
2022-11-20T08:06:07.811Z,0.00
2022-11-20T08:08:40.070Z,0.00
2022-11-20T08:11:28.342Z,0.00
2022-11-20T08:14:14.021Z,0.10
2022-11-20T08:16:42.837Z,0.10
2022-11-20T08:19:12.890Z,0.10
2022-11-20T08:21:41.255Z,0.20
2022-11-20T08:24:10.179Z,0.20
2022-11-20T08:26:38.890Z,0.30
2022-11-20T08:29:07.592Z,0.50
2022-11-20T08:31:36.073Z,0.50
2022-11-20T08:34:08.880Z,0.60
2022-11-20T08:36:39.159Z,0.60
2022-11-20T08:39:07.240Z,0.60
2022-11-20T08:41:35.811Z,0.50
2022-11-20T08:44:06.271Z,0.60
2022-11-20T08:46:37.281Z,0.50
2022-11-20T08:49:06.891Z,0.40
2022-11-20T08:51:35.343Z,0.40
2022-11-20T08:54:06.178Z,0.40
2022-11-20T08:56:34.834Z,0.50
2022-11-20T08:59:43.239Z,0.50
2022-11-20T09:01:53.681Z,0.60
2022-11-20T09:04:22.006Z,0.50
2022-11-20T09:06:52.057Z,0.50
2022-11-20T09:09:22.067Z,0.50
2022-11-20T09:11:50.929Z,0.60
2022-11-20T09:14:19.181Z,0.60
2022-11-20T09:16:47.740Z,0.50
2022-11-20T09:22:04.220Z,0.50
2022-11-20T09:24:33.916Z,0.50
2022-11-20T09:27:05.134Z,0.60
2022-11-20T09:29:33.301Z,0.50
2022-11-20T09:32:01.588Z,0.50
2022-11-20T09:34:30.007Z,0.60
2022-11-20T09:37:01.471Z,0.60
2022-11-20T09:39:34.678Z,0.70
2022-11-20T09:42:16.573Z,0.70
2022-11-20T09:44:56.851Z,0.70
2022-11-20T09:47:35.111Z,0.70
2022-11-20T09:50:16.760Z,0.80
2022-11-20T09:52:57.371Z,0.70
2022-11-20T09:55:27.696Z,0.70
2022-11-20T09:57:56.746Z,0.70
2022-11-20T10:00:25.365Z,0.60
2022-11-20T10:02:59.238Z,0.50
2022-11-20T10:05:31.772Z,0.60
2022-11-20T10:08:11.066Z,0.70
2022-11-20T10:10:49.490Z,0.80
2022-11-20T10:13:32.710Z,0.80
2022-11-20T10:16:12.654Z,0.70
2022-11-20T10:18:54.995Z,0.80
2022-11-20T10:21:33.914Z,1.10
2022-11-20T10:24:26.336Z,1.00
2022-11-20T10:27:06.305Z,0.90
2022-11-20T10:29:36.326Z,1.00
2022-11-20T10:32:09.640Z,0.90
2022-11-20T10:34:46.054Z,0.80
2022-11-20T10:37:18.548Z,0.80
2022-11-20T10:39:56.861Z,0.80
2022-11-20T10:42:33.137Z,0.80
2022-11-20T10:45:13.430Z,0.80
2022-11-20T10:47:41.608Z,0.80
2022-11-20T10:50:21.897Z,0.90
2022-11-20T10:52:58.098Z,1.00
2022-11-20T10:55:35.074Z,0.90
2022-11-20T10:58:12.473Z,0.90
2022-11-20T11:00:40.674Z,0.80
2022-11-20T11:03:23.011Z,0.80
2022-11-20T11:05:53.931Z,0.90
2022-11-20T11:08:22.600Z,1.00
2022-11-20T11:10:53.954Z,1.00
2022-11-20T11:13:25.436Z,1.10
2022-11-20T11:15:56.608Z,1.10
2022-11-20T11:18:30.878Z,1.20
2022-11-20T11:21:01.212Z,1.30
2022-11-20T11:23:35.152Z,1.40
2022-11-20T11:26:05.352Z,1.50
2022-11-20T11:28:35.664Z,1.60
2022-11-20T11:31:03.921Z,1.50
2022-11-20T11:33:34.707Z,1.60
2022-11-20T11:36:05.695Z,1.70
2022-11-20T11:38:37.945Z,1.70
2022-11-20T11:41:08.283Z,1.50
2022-11-20T11:43:57.386Z,1.50
2022-11-20T11:46:32.895Z,1.40
2022-11-20T11:49:02.524Z,1.30
2022-11-20T11:51:38.451Z,1.40
2022-11-20T11:54:16.285Z,1.40
2022-11-20T11:56:44.863Z,1.30
2022-11-20T11:59:22.819Z,1.20
2022-11-20T12:01:56.539Z,1.30
2022-11-20T12:04:38.905Z,1.30
2022-11-20T12:07:44.985Z,1.30
2022-11-20T12:10:06.240Z,1.10
2022-11-20T12:12:42.548Z,1.10
2022-11-20T12:15:14.831Z,1.20
2022-11-20T12:17:43.049Z,1.20
2022-11-20T12:20:16.393Z,1.20
2022-11-20T12:22:53.771Z,1.20
2022-11-20T12:25:26.904Z,1.30
2022-11-20T12:28:09.914Z,1.30
2022-11-20T12:30:42.722Z,1.30
2022-11-20T12:33:29.725Z,1.40
2022-11-20T12:36:10.172Z,1.40
2022-11-20T12:39:01.005Z,1.60
2022-11-20T12:42:06.115Z,1.70
2022-11-20T12:45:12.412Z,1.60
2022-11-20T12:48:25.836Z,1.60
2022-11-20T12:51:18.997Z,1.60
2022-11-20T12:53:59.872Z,1.60
2022-11-20T12:56:40.331Z,1.60
2022-11-20T12:59:25.731Z,1.60
2022-11-20T13:01:58.840Z,1.50
2022-11-20T13:04:46.648Z,1.40
2022-11-20T13:07:16.891Z,1.40
2022-11-20T13:09:48.142Z,1.40
2022-11-20T13:12:21.847Z,1.30
2022-11-20T13:14:56.177Z,1.30
2022-11-20T13:17:33.144Z,1.30
2022-11-20T13:20:04.477Z,1.30
2022-11-20T13:22:46.492Z,1.30
2022-11-20T13:25:25.872Z,1.40
2022-11-20T13:27:55.593Z,1.50
2022-11-20T13:30:25.629Z,1.60
2022-11-20T13:32:55.841Z,1.60
2022-11-20T13:35:34.046Z,1.70
2022-11-20T13:38:08.132Z,1.50
2022-11-20T13:40:37.979Z,1.60
2022-11-20T13:43:25.102Z,1.60
2022-11-20T13:46:01.116Z,1.60
2022-11-20T13:48:33.248Z,1.60
2022-11-20T13:51:14.801Z,1.60
2022-11-20T13:54:06.529Z,1.60
2022-11-20T13:56:45.741Z,1.50
2022-11-20T13:59:30.685Z,1.50
2022-11-20T14:01:58.801Z,1.50
2022-11-20T14:04:31.393Z,1.50
2022-11-20T14:07:01.262Z,1.50
2022-11-20T14:09:33.756Z,1.40
2022-11-20T14:12:03.171Z,1.50
2022-11-20T14:14:32.290Z,1.40
2022-11-20T14:17:08.822Z,1.40
2022-11-20T14:19:38.183Z,1.50
2022-11-20T14:22:18.600Z,1.40
2022-11-20T14:24:47.006Z,1.50
2022-11-20T14:27:17.660Z,1.50
2022-11-20T14:29:47.843Z,1.50
2022-11-20T14:32:19.119Z,1.50
2022-11-20T14:34:50.478Z,1.40
2022-11-20T14:37:25.073Z,1.40
2022-11-20T14:39:54.976Z,1.40
2022-11-20T14:42:28.226Z,1.50
2022-11-20T14:44:59.802Z,1.30
2022-11-20T14:47:29.854Z,1.20
2022-11-20T14:49:59.522Z,1.10
2022-11-20T14:52:31.979Z,1.10
2022-11-20T14:55:02.397Z,1.20
2022-11-20T14:57:34.800Z,1.10
2022-11-20T15:00:21.236Z,1.10
2022-11-20T15:02:51.105Z,1.00
2022-11-20T15:05:21.639Z,1.00
2022-11-20T15:07:53.288Z,1.10
2022-11-20T15:10:26.466Z,1.10
2022-11-20T15:12:57.825Z,1.10
2022-11-20T15:15:29.978Z,1.10
2022-11-20T15:17:58.438Z,1.20
2022-11-20T15:20:29.655Z,1.20
2022-11-20T15:22:59.413Z,1.20
2022-11-20T15:25:28.049Z,1.20
2022-11-20T15:27:58.518Z,1.20
2022-11-20T15:30:27.121Z,1.20
2022-11-20T15:32:55.402Z,1.20
2022-11-20T15:35:23.697Z,1.10
2022-11-20T15:37:52.149Z,1.10
2022-11-20T15:40:21.789Z,1.10
2022-11-20T15:45:46.822Z,1.10
2022-11-20T15:48:21.289Z,1.10
2022-11-20T15:50:55.005Z,1.10
2022-11-20T15:53:23.106Z,1.20
2022-11-20T15:55:51.559Z,1.20
2022-11-20T15:58:19.669Z,1.20
2022-11-20T16:00:49.156Z,1.20
2022-11-20T16:03:18.545Z,1.10
2022-11-20T16:05:47.972Z,1.10
2022-11-20T16:08:16.261Z,1.10
2022-11-20T16:10:44.481Z,1.10
2022-11-20T16:13:33.365Z,1.00
2022-11-20T16:16:07.237Z,0.90
2022-11-20T16:18:35.824Z,0.80
2022-11-20T16:21:04.382Z,0.70
2022-11-20T16:23:34.043Z,0.70
2022-11-20T16:26:10.593Z,0.60
2022-11-20T16:28:39.422Z,0.60
2022-11-20T16:31:13.160Z,0.50
2022-11-20T16:33:41.442Z,0.50
2022-11-20T16:36:11.073Z,0.40
2022-11-20T16:38:39.424Z,0.40
2022-11-20T16:41:14.188Z,0.40
2022-11-20T16:43:51.426Z,0.30
2022-11-20T16:46:22.914Z,0.30
2022-11-20T16:48:55.813Z,0.40
2022-11-20T16:51:25.044Z,0.30
2022-11-20T16:53:55.805Z,0.30
2022-11-20T16:56:25.637Z,0.30
2022-11-20T16:58:58.502Z,0.30
2022-11-20T17:01:29.283Z,0.20
2022-11-20T17:04:00.046Z,0.20
2022-11-20T17:06:30.440Z,0.40
2022-11-20T17:08:59.432Z,0.30
2022-11-20T17:11:30.385Z,0.40
2022-11-20T17:14:00.446Z,0.40
2022-11-20T17:16:32.535Z,0.30
2022-11-20T17:19:03.542Z,0.30
2022-11-20T17:21:32.500Z,0.30
2022-11-20T17:24:02.698Z,0.30
2022-11-20T17:26:31.045Z,0.20
2022-11-20T17:29:01.686Z,0.20
2022-11-20T17:31:32.699Z,0.30
2022-11-20T17:34:01.672Z,0.30
2022-11-20T17:36:30.920Z,0.40
2022-11-20T17:38:59.472Z,0.50
2022-11-20T17:41:29.335Z,0.50
2022-11-20T17:44:01.319Z,0.50
2022-11-20T17:46:34.673Z,0.50
2022-11-20T17:49:03.927Z,0.50
2022-11-20T17:51:34.853Z,0.50
2022-11-20T17:54:07.229Z,0.50
2022-11-20T17:56:55.029Z,0.60
2022-11-20T17:59:23.466Z,0.60
2022-11-20T18:01:59.627Z,0.60
2022-11-20T18:04:30.626Z,0.60
2022-11-20T18:06:58.832Z,0.70
2022-11-20T18:09:27.136Z,0.70
2022-11-20T18:11:55.355Z,0.70
2022-11-20T18:14:34.484Z,0.70
2022-11-20T18:17:05.890Z,0.70
2022-11-20T18:19:38.904Z,0.60
2022-11-20T18:22:11.277Z,0.50
2022-11-20T18:24:39.609Z,0.50
2022-11-20T18:27:09.845Z,0.40
2022-11-20T18:29:37.893Z,0.50
2022-11-20T18:32:07.565Z,0.40
2022-11-20T18:34:35.681Z,0.40
2022-11-20T18:37:04.564Z,0.40
2022-11-20T18:39:35.044Z,0.40
2022-11-20T18:42:20.895Z,0.40
2022-11-20T18:44:52.273Z,0.40
2022-11-20T18:47:23.574Z,0.30
2022-11-20T18:49:53.606Z,0.30
2022-11-20T18:52:23.496Z,0.20
2022-11-20T18:54:51.869Z,0.20
2022-11-20T18:57:20.494Z,0.20
2022-11-20T18:59:48.734Z,0.20
2022-11-20T19:02:18.727Z,0.20
2022-11-20T19:04:48.700Z,0.20
2022-11-20T19:07:17.998Z,0.10
2022-11-20T19:09:49.937Z,0.00
2022-11-20T19:12:18.631Z,0.00
2022-11-20T19:14:47.179Z,-0.10
2022-11-20T19:17:17.130Z,-0.10
2022-11-20T19:19:47.793Z,-0.20
2022-11-20T19:22:15.960Z,-0.30
2022-11-20T19:24:44.137Z,-0.30
2022-11-20T19:27:12.443Z,-0.30
2022-11-20T19:29:41.061Z,-0.20
2022-11-20T19:32:09.232Z,-0.20
2022-11-20T19:34:37.317Z,-0.30
2022-11-20T19:37:07.036Z,-0.20
2022-11-20T19:39:36.247Z,-0.20
2022-11-20T19:42:04.658Z,-0.20
2022-11-20T19:44:33.364Z,-0.20
2022-11-20T19:47:08.940Z,-0.20
2022-11-20T19:49:41.937Z,-0.20
2022-11-20T19:52:11.906Z,-0.20
2022-11-20T19:54:40.143Z,-0.10
2022-11-20T19:57:08.395Z,-0.10
2022-11-20T19:59:39.227Z,-0.10
2022-11-20T20:02:07.735Z,0.00
2022-11-20T20:04:38.865Z,0.00
2022-11-20T20:07:07.494Z,0.00
2022-11-20T20:09:41.906Z,0.00
2022-11-20T20:12:10.160Z,0.00
2022-11-20T20:14:38.585Z,-0.10
2022-11-20T20:17:06.713Z,0.00
2022-11-20T20:19:35.938Z,0.00
2022-11-20T20:22:04.254Z,0.00
2022-11-20T20:24:32.464Z,0.00
2022-11-20T20:27:02.045Z,0.00
2022-11-20T20:29:31.356Z,-0.10
2022-11-20T20:31:59.609Z,-0.10
2022-11-20T20:34:29.637Z,0.00
2022-11-20T20:36:59.817Z,-0.10
2022-11-20T20:39:29.104Z,-0.10
2022-11-20T20:41:59.280Z,-0.20
2022-11-20T20:44:45.863Z,-0.20
2022-11-20T20:47:13.942Z,-0.20
2022-11-20T20:49:43.253Z,-0.30
2022-11-20T20:52:11.458Z,-0.40
2022-11-20T20:54:41.845Z,-0.50
2022-11-20T20:57:10.038Z,-0.50
2022-11-20T20:59:39.983Z,-0.70
2022-11-20T21:02:08.482Z,-0.90
2022-11-20T21:04:36.634Z,-1.20
2022-11-20T21:07:05.026Z,-1.40
2022-11-20T21:09:33.303Z,-1.10
2022-11-20T21:12:01.696Z,-1.10
2022-11-20T21:14:29.828Z,-1.00
2022-11-20T21:16:59.508Z,-1.10
2022-11-20T21:19:27.674Z,-1.20
2022-11-20T21:22:00.406Z,-1.20
2022-11-20T21:24:31.662Z,-1.10
2022-11-20T21:27:00.679Z,-1.40
2022-11-20T21:29:31.885Z,-1.60
2022-11-20T21:32:02.410Z,-1.40
2022-11-20T21:34:30.788Z,-1.30
2022-11-20T21:36:58.940Z,-1.20
2022-11-20T21:39:27.343Z,-1.10
2022-11-20T21:41:56.577Z,-1.20
2022-11-20T21:44:31.269Z,-1.50
2022-11-20T21:47:00.163Z,-1.60
2022-11-20T21:49:29.742Z,-1.70
2022-11-20T21:51:58.233Z,-1.70
2022-11-20T21:54:26.732Z,-1.90
2022-11-20T21:56:55.080Z,-2.10
2022-11-20T21:59:23.546Z,-2.30
2022-11-20T22:01:51.947Z,-2.40
2022-11-20T22:04:23.008Z,-2.00
2022-11-20T22:06:52.708Z,-1.80
2022-11-20T22:09:20.902Z,-1.80
2022-11-20T22:11:49.311Z,-1.80
2022-11-20T22:14:22.421Z,-1.80
2022-11-20T22:16:52.936Z,-1.80
2022-11-20T22:19:26.853Z,-1.80
2022-11-20T22:21:56.479Z,-1.50
2022-11-20T22:24:25.110Z,-1.50
2022-11-20T22:26:53.749Z,-1.50
2022-11-20T22:29:22.938Z,-1.40
2022-11-20T22:31:53.466Z,-1.40
2022-11-20T22:34:21.952Z,-1.40
2022-11-20T22:36:50.422Z,-1.40
2022-11-20T22:39:22.762Z,-1.50
2022-11-20T22:41:50.868Z,-1.50
2022-11-20T22:44:18.987Z,-1.60
2022-11-20T22:46:47.114Z,-1.50
2022-11-20T22:49:16.062Z,-1.50
2022-11-20T22:51:44.263Z,-1.60
2022-11-20T22:54:13.236Z,-1.50
2022-11-20T22:56:43.031Z,-1.50
2022-11-20T22:59:11.285Z,-1.60
2022-11-20T23:01:40.574Z,-1.80
2022-11-20T23:04:11.199Z,-1.80
2022-11-20T23:06:39.370Z,-1.80
2022-11-20T23:09:08.535Z,-2.00
2022-11-20T23:11:37.451Z,-2.10
2022-11-20T23:14:09.014Z,-2.20
2022-11-20T23:16:37.302Z,-2.00
2022-11-20T23:19:07.397Z,-1.80
2022-11-20T23:21:37.135Z,-1.60
2022-11-20T23:24:06.504Z,-1.40
2022-11-20T23:26:36.862Z,-1.30
2022-11-20T23:29:06.784Z,-1.20
2022-11-20T23:31:36.588Z,-1.20
2022-11-20T23:34:05.035Z,-1.20
2022-11-20T23:36:33.202Z,-1.20
2022-11-20T23:39:01.331Z,-1.20
2022-11-20T23:41:29.579Z,-1.10
2022-11-20T23:43:57.745Z,-1.10
2022-11-20T23:46:29.654Z,-1.10
2022-11-20T23:48:57.725Z,-1.10
2022-11-20T23:51:26.001Z,-1.10
2022-11-20T23:53:54.120Z,-1.10
2022-11-20T23:56:22.189Z,-1.10
2022-11-20T23:58:50.294Z,-1.10
